sensor_id;sensor_type;location;lat;lon;timestamp;P1;durP1;ratioP1;P2;durP2;ratioP2
12356;SDS011;6243;51.244;6.774;2022-09-09T00:00:11;1.03;;;0.47;;
12356;SDS011;6243;51.244;6.774;2022-09-09T00:02:38;2.03;;;1.00;;
12356;SDS011;6243;51.244;6.774;2022-09-09T00:05:09;1.43;;;0.70;;
12356;SDS011;6243;51.244;6.774;2022-09-09T00:07:43;2.10;;;0.63;;
12356;SDS011;6243;51.244;6.774;2022-09-09T00:10:15;1.20;;;1.10;;
12356;SDS011;6243;51.244;6.774;2022-09-09T00:12:47;3.30;;;1.90;;
12356;SDS011;6243;51.244;6.774;2022-09-09T00:15:22;2.87;;;1.70;;
12356;SDS011;6243;51.244;6.774;2022-09-09T00:17:52;3.27;;;1.90;;
12356;SDS011;6243;51.244;6.774;2022-09-09T00:20:23;2.43;;;1.70;;
12356;SDS011;6243;51.244;6.774;2022-09-09T00:22:53;3.73;;;1.90;;
12356;SDS011;6243;51.244;6.774;2022-09-09T00:25:27;2.07;;;1.40;;
12356;SDS011;6243;51.244;6.774;2022-09-09T00:27:58;1.43;;;1.30;;
12356;SDS011;6243;51.244;6.774;2022-09-09T00:30:25;3.43;;;1.00;;
12356;SDS011;6243;51.244;6.774;2022-09-09T00:32:53;1.23;;;0.90;;
12356;SDS011;6243;51.244;6.774;2022-09-09T00:35:24;1.53;;;1.13;;
12356;SDS011;6243;51.244;6.774;2022-09-09T00:37:53;1.63;;;1.20;;
12356;SDS011;6243;51.244;6.774;2022-09-09T00:40:27;1.30;;;0.97;;
12356;SDS011;6243;51.244;6.774;2022-09-09T00:43:03;2.37;;;1.00;;
12356;SDS011;6243;51.244;6.774;2022-09-09T00:45:54;3.13;;;1.00;;
12356;SDS011;6243;51.244;6.774;2022-09-09T00:48:35;1.30;;;0.77;;
12356;SDS011;6243;51.244;6.774;2022-09-09T00:51:14;3.37;;;0.83;;
12356;SDS011;6243;51.244;6.774;2022-09-09T00:53:51;2.17;;;1.17;;
12356;SDS011;6243;51.244;6.774;2022-09-09T00:56:30;1.10;;;0.90;;
12356;SDS011;6243;51.244;6.774;2022-09-09T00:59:04;0.90;;;0.90;;
12356;SDS011;6243;51.244;6.774;2022-09-09T01:01:40;1.90;;;0.80;;
12356;SDS011;6243;51.244;6.774;2022-09-09T01:04:07;1.87;;;0.83;;
12356;SDS011;6243;51.244;6.774;2022-09-09T01:06:38;2.80;;;0.90;;
12356;SDS011;6243;51.244;6.774;2022-09-09T01:09:05;3.40;;;1.03;;
12356;SDS011;6243;51.244;6.774;2022-09-09T01:11:40;2.97;;;1.40;;
12356;SDS011;6243;51.244;6.774;2022-09-09T01:14:16;2.93;;;1.30;;
12356;SDS011;6243;51.244;6.774;2022-09-09T01:16:54;3.40;;;1.53;;
12356;SDS011;6243;51.244;6.774;2022-09-09T01:19:24;3.10;;;1.40;;
12356;SDS011;6243;51.244;6.774;2022-09-09T01:22:00;2.40;;;1.53;;
12356;SDS011;6243;51.244;6.774;2022-09-09T01:24:35;4.37;;;1.60;;
12356;SDS011;6243;51.244;6.774;2022-09-09T01:27:08;3.17;;;1.43;;
12356;SDS011;6243;51.244;6.774;2022-09-09T01:29:35;3.70;;;1.43;;
12356;SDS011;6243;51.244;6.774;2022-09-09T01:32:02;3.40;;;1.17;;
12356;SDS011;6243;51.244;6.774;2022-09-09T01:34:48;1.57;;;1.30;;
12356;SDS011;6243;51.244;6.774;2022-09-09T01:37:15;3.57;;;1.33;;
12356;SDS011;6243;51.244;6.774;2022-09-09T01:39:41;1.33;;;1.17;;
12356;SDS011;6243;51.244;6.774;2022-09-09T01:42:11;2.57;;;1.13;;
12356;SDS011;6243;51.244;6.774;2022-09-09T01:44:39;2.70;;;1.00;;
12356;SDS011;6243;51.244;6.774;2022-09-09T01:47:05;1.83;;;1.30;;
12356;SDS011;6243;51.244;6.774;2022-09-09T01:49:32;2.43;;;1.20;;
12356;SDS011;6243;51.244;6.774;2022-09-09T01:51:57;2.03;;;1.00;;
12356;SDS011;6243;51.244;6.774;2022-09-09T01:54:24;2.17;;;0.90;;
12356;SDS011;6243;51.244;6.774;2022-09-09T01:56:55;1.73;;;1.00;;
12356;SDS011;6243;51.244;6.774;2022-09-09T01:59:36;1.80;;;1.03;;
12356;SDS011;6243;51.244;6.774;2022-09-09T02:02:15;3.17;;;1.23;;
12356;SDS011;6243;51.244;6.774;2022-09-09T02:04:43;2.43;;;1.20;;
12356;SDS011;6243;51.244;6.774;2022-09-09T02:07:14;2.17;;;1.00;;
12356;SDS011;6243;51.244;6.774;2022-09-09T02:09:52;2.77;;;1.10;;
12356;SDS011;6243;51.244;6.774;2022-09-09T02:12:25;3.20;;;1.10;;
12356;SDS011;6243;51.244;6.774;2022-09-09T02:14:55;1.10;;;1.00;;
12356;SDS011;6243;51.244;6.774;2022-09-09T02:17:25;2.17;;;1.10;;
12356;SDS011;6243;51.244;6.774;2022-09-09T02:19:56;4.30;;;1.43;;
12356;SDS011;6243;51.244;6.774;2022-09-09T02:22:30;1.53;;;1.10;;
12356;SDS011;6243;51.244;6.774;2022-09-09T02:24:58;2.70;;;1.27;;
12356;SDS011;6243;51.244;6.774;2022-09-09T02:27:25;3.57;;;1.23;;
12356;SDS011;6243;51.244;6.774;2022-09-09T02:29:51;3.90;;;1.33;;
12356;SDS011;6243;51.244;6.774;2022-09-09T02:32:20;3.03;;;1.37;;
12356;SDS011;6243;51.244;6.774;2022-09-09T02:34:48;3.47;;;1.17;;
12356;SDS011;6243;51.244;6.774;2022-09-09T02:37:17;2.13;;;1.20;;
12356;SDS011;6243;51.244;6.774;2022-09-09T02:39:45;3.73;;;1.23;;
12356;SDS011;6243;51.244;6.774;2022-09-09T02:42:11;2.13;;;1.17;;
12356;SDS011;6243;51.244;6.774;2022-09-09T02:44:37;3.80;;;1.37;;
12356;SDS011;6243;51.244;6.774;2022-09-09T02:47:07;4.93;;;1.40;;
12356;SDS011;6243;51.244;6.774;2022-09-09T02:49:47;4.70;;;1.57;;
12356;SDS011;6243;51.244;6.774;2022-09-09T02:52:25;3.20;;;1.10;;
12356;SDS011;6243;51.244;6.774;2022-09-09T02:54:59;3.77;;;1.27;;
12356;SDS011;6243;51.244;6.774;2022-09-09T02:57:32;3.43;;;1.20;;
12356;SDS011;6243;51.244;6.774;2022-09-09T02:59:59;3.17;;;1.70;;
12356;SDS011;6243;51.244;6.774;2022-09-09T03:02:25;1.83;;;1.30;;
12356;SDS011;6243;51.244;6.774;2022-09-09T03:04:52;1.97;;;1.20;;
12356;SDS011;6243;51.244;6.774;2022-09-09T03:07:18;1.90;;;1.17;;
12356;SDS011;6243;51.244;6.774;2022-09-09T03:09:43;1.53;;;1.07;;
12356;SDS011;6243;51.244;6.774;2022-09-09T03:12:09;2.37;;;1.17;;
12356;SDS011;6243;51.244;6.774;2022-09-09T03:14:35;3.40;;;1.33;;
12356;SDS011;6243;51.244;6.774;2022-09-09T03:17:01;3.17;;;1.50;;
12356;SDS011;6243;51.244;6.774;2022-09-09T03:19:26;3.40;;;1.33;;
12356;SDS011;6243;51.244;6.774;2022-09-09T03:21:53;4.33;;;1.23;;
12356;SDS011;6243;51.244;6.774;2022-09-09T03:24:19;1.70;;;1.20;;
12356;SDS011;6243;51.244;6.774;2022-09-09T03:26:45;2.10;;;1.27;;
12356;SDS011;6243;51.244;6.774;2022-09-09T03:29:10;3.40;;;1.17;;
12356;SDS011;6243;51.244;6.774;2022-09-09T03:31:37;5.90;;;1.50;;
12356;SDS011;6243;51.244;6.774;2022-09-09T03:34:02;2.53;;;1.33;;
12356;SDS011;6243;51.244;6.774;2022-09-09T03:36:28;4.23;;;1.67;;
12356;SDS011;6243;51.244;6.774;2022-09-09T03:38:55;2.73;;;1.30;;
12356;SDS011;6243;51.244;6.774;2022-09-09T03:41:21;3.80;;;1.63;;
12356;SDS011;6243;51.244;6.774;2022-09-09T03:43:47;2.43;;;1.10;;
12356;SDS011;6243;51.244;6.774;2022-09-09T03:46:12;2.97;;;1.40;;
12356;SDS011;6243;51.244;6.774;2022-09-09T03:48:38;2.60;;;1.20;;
12356;SDS011;6243;51.244;6.774;2022-09-09T03:51:03;2.57;;;1.47;;
12356;SDS011;6243;51.244;6.774;2022-09-09T03:53:29;3.27;;;2.03;;
12356;SDS011;6243;51.244;6.774;2022-09-09T03:55:56;1.83;;;1.17;;
12356;SDS011;6243;51.244;6.774;2022-09-09T03:58:23;5.23;;;1.60;;
12356;SDS011;6243;51.244;6.774;2022-09-09T04:00:52;4.63;;;1.43;;
12356;SDS011;6243;51.244;6.774;2022-09-09T04:03:19;4.77;;;1.57;;
12356;SDS011;6243;51.244;6.774;2022-09-09T04:05:44;2.13;;;1.30;;
12356;SDS011;6243;51.244;6.774;2022-09-09T04:08:10;3.43;;;1.50;;
12356;SDS011;6243;51.244;6.774;2022-09-09T04:10:35;2.33;;;1.57;;
12356;SDS011;6243;51.244;6.774;2022-09-09T04:13:03;4.30;;;1.50;;
12356;SDS011;6243;51.244;6.774;2022-09-09T04:15:30;2.77;;;1.33;;
12356;SDS011;6243;51.244;6.774;2022-09-09T04:17:56;3.73;;;1.47;;
12356;SDS011;6243;51.244;6.774;2022-09-09T04:20:21;2.93;;;1.60;;
12356;SDS011;6243;51.244;6.774;2022-09-09T04:22:47;3.50;;;1.40;;
12356;SDS011;6243;51.244;6.774;2022-09-09T04:25:12;4.20;;;2.10;;
12356;SDS011;6243;51.244;6.774;2022-09-09T04:27:38;4.97;;;1.97;;
12356;SDS011;6243;51.244;6.774;2022-09-09T04:30:05;4.60;;;1.30;;
12356;SDS011;6243;51.244;6.774;2022-09-09T04:32:32;4.53;;;1.77;;
12356;SDS011;6243;51.244;6.774;2022-09-09T04:34:58;4.13;;;1.30;;
12356;SDS011;6243;51.244;6.774;2022-09-09T04:37:23;4.00;;;1.50;;
12356;SDS011;6243;51.244;6.774;2022-09-09T04:39:49;6.27;;;1.80;;
12356;SDS011;6243;51.244;6.774;2022-09-09T04:42:14;4.47;;;1.70;;
12356;SDS011;6243;51.244;6.774;2022-09-09T04:44:40;3.90;;;1.63;;
12356;SDS011;6243;51.244;6.774;2022-09-09T04:47:07;8.07;;;1.90;;
12356;SDS011;6243;51.244;6.774;2022-09-09T04:49:32;3.77;;;1.60;;
12356;SDS011;6243;51.244;6.774;2022-09-09T04:51:58;7.07;;;1.80;;
12356;SDS011;6243;51.244;6.774;2022-09-09T04:54:23;4.70;;;1.77;;
12356;SDS011;6243;51.244;6.774;2022-09-09T04:56:49;3.27;;;1.77;;
12356;SDS011;6243;51.244;6.774;2022-09-09T04:59:15;3.43;;;1.97;;
12356;SDS011;6243;51.244;6.774;2022-09-09T05:01:40;3.50;;;1.63;;
12356;SDS011;6243;51.244;6.774;2022-09-09T05:04:07;4.43;;;1.83;;
12356;SDS011;6243;51.244;6.774;2022-09-09T05:06:33;4.07;;;1.47;;
12356;SDS011;6243;51.244;6.774;2022-09-09T05:08:58;4.43;;;1.73;;
12356;SDS011;6243;51.244;6.774;2022-09-09T05:11:24;5.90;;;2.10;;
12356;SDS011;6243;51.244;6.774;2022-09-09T05:13:51;4.10;;;2.17;;
12356;SDS011;6243;51.244;6.774;2022-09-09T05:16:17;5.83;;;1.80;;
12356;SDS011;6243;51.244;6.774;2022-09-09T05:18:43;4.70;;;1.60;;
12356;SDS011;6243;51.244;6.774;2022-09-09T05:21:11;3.47;;;1.70;;
12356;SDS011;6243;51.244;6.774;2022-09-09T05:23:37;4.63;;;1.60;;
12356;SDS011;6243;51.244;6.774;2022-09-09T05:26:03;4.40;;;1.83;;
12356;SDS011;6243;51.244;6.774;2022-09-09T05:28:30;4.37;;;1.70;;
12356;SDS011;6243;51.244;6.774;2022-09-09T05:30:56;4.70;;;2.07;;
12356;SDS011;6243;51.244;6.774;2022-09-09T05:33:23;5.73;;;2.40;;
12356;SDS011;6243;51.244;6.774;2022-09-09T05:35:54;7.70;;;2.20;;
12356;SDS011;6243;51.244;6.774;2022-09-09T05:38:22;6.10;;;2.40;;
12356;SDS011;6243;51.244;6.774;2022-09-09T05:40:47;6.93;;;2.37;;
12356;SDS011;6243;51.244;6.774;2022-09-09T05:43:13;8.33;;;2.17;;
12356;SDS011;6243;51.244;6.774;2022-09-09T05:45:38;5.47;;;2.13;;
12356;SDS011;6243;51.244;6.774;2022-09-09T05:48:04;6.27;;;1.90;;
12356;SDS011;6243;51.244;6.774;2022-09-09T05:50:30;5.40;;;1.90;;
12356;SDS011;6243;51.244;6.774;2022-09-09T05:52:55;6.40;;;2.30;;
12356;SDS011;6243;51.244;6.774;2022-09-09T05:55:22;6.90;;;1.80;;
12356;SDS011;6243;51.244;6.774;2022-09-09T05:57:48;3.33;;;2.10;;
12356;SDS011;6243;51.244;6.774;2022-09-09T06:00:14;4.83;;;2.00;;
12356;SDS011;6243;51.244;6.774;2022-09-09T06:02:40;4.40;;;1.63;;
12356;SDS011;6243;51.244;6.774;2022-09-09T06:05:05;4.50;;;2.20;;
12356;SDS011;6243;51.244;6.774;2022-09-09T06:07:31;3.97;;;2.07;;
12356;SDS011;6243;51.244;6.774;2022-09-09T06:09:57;9.03;;;2.40;;
12356;SDS011;6243;51.244;6.774;2022-09-09T06:12:25;5.70;;;1.87;;
12356;SDS011;6243;51.244;6.774;2022-09-09T06:14:50;5.20;;;2.20;;
12356;SDS011;6243;51.244;6.774;2022-09-09T06:17:16;3.30;;;2.10;;
12356;SDS011;6243;51.244;6.774;2022-09-09T06:19:41;6.30;;;2.13;;
12356;SDS011;6243;51.244;6.774;2022-09-09T06:22:07;5.70;;;1.90;;
12356;SDS011;6243;51.244;6.774;2022-09-09T06:24:32;7.33;;;2.17;;
12356;SDS011;6243;51.244;6.774;2022-09-09T06:26:58;7.67;;;2.07;;
12356;SDS011;6243;51.244;6.774;2022-09-09T06:29:25;4.70;;;2.00;;
12356;SDS011;6243;51.244;6.774;2022-09-09T06:31:50;4.80;;;1.97;;
12356;SDS011;6243;51.244;6.774;2022-09-09T06:34:16;4.67;;;2.10;;
12356;SDS011;6243;51.244;6.774;2022-09-09T06:36:41;4.20;;;1.87;;
12356;SDS011;6243;51.244;6.774;2022-09-09T06:39:07;5.57;;;1.90;;
12356;SDS011;6243;51.244;6.774;2022-09-09T06:41:33;6.43;;;1.80;;
12356;SDS011;6243;51.244;6.774;2022-09-09T06:43:58;2.80;;;1.47;;
12356;SDS011;6243;51.244;6.774;2022-09-09T06:46:26;4.17;;;2.10;;
12356;SDS011;6243;51.244;6.774;2022-09-09T06:48:52;6.30;;;2.00;;
12356;SDS011;6243;51.244;6.774;2022-09-09T06:51:18;3.93;;;2.00;;
12356;SDS011;6243;51.244;6.774;2022-09-09T06:53:46;3.93;;;1.90;;
12356;SDS011;6243;51.244;6.774;2022-09-09T06:56:18;4.40;;;2.17;;
12356;SDS011;6243;51.244;6.774;2022-09-09T06:58:46;5.23;;;2.20;;
12356;SDS011;6243;51.244;6.774;2022-09-09T07:01:13;5.77;;;2.00;;
12356;SDS011;6243;51.244;6.774;2022-09-09T07:03:41;6.00;;;1.87;;
12356;SDS011;6243;51.244;6.774;2022-09-09T07:06:08;8.50;;;1.90;;
12356;SDS011;6243;51.244;6.774;2022-09-09T07:08:38;6.87;;;1.70;;
12356;SDS011;6243;51.244;6.774;2022-09-09T07:11:04;7.70;;;2.50;;
12356;SDS011;6243;51.244;6.774;2022-09-09T07:13:31;5.83;;;1.80;;
12356;SDS011;6243;51.244;6.774;2022-09-09T07:16:02;7.60;;;2.07;;
12356;SDS011;6243;51.244;6.774;2022-09-09T07:18:29;7.27;;;1.70;;
12356;SDS011;6243;51.244;6.774;2022-09-09T07:20:55;5.70;;;2.00;;
12356;SDS011;6243;51.244;6.774;2022-09-09T07:23:21;6.20;;;1.93;;
12356;SDS011;6243;51.244;6.774;2022-09-09T07:25:47;4.63;;;1.83;;
12356;SDS011;6243;51.244;6.774;2022-09-09T07:28:12;3.83;;;1.73;;
12356;SDS011;6243;51.244;6.774;2022-09-09T07:30:38;7.53;;;1.83;;
12356;SDS011;6243;51.244;6.774;2022-09-09T07:33:04;4.80;;;1.80;;
12356;SDS011;6243;51.244;6.774;2022-09-09T07:35:29;2.93;;;1.53;;
12356;SDS011;6243;51.244;6.774;2022-09-09T07:37:57;6.50;;;2.00;;
12356;SDS011;6243;51.244;6.774;2022-09-09T07:40:22;5.40;;;1.90;;
12356;SDS011;6243;51.244;6.774;2022-09-09T07:42:48;7.10;;;1.83;;
12356;SDS011;6243;51.244;6.774;2022-09-09T07:45:14;5.73;;;1.97;;
12356;SDS011;6243;51.244;6.774;2022-09-09T07:47:40;4.80;;;1.57;;
12356;SDS011;6243;51.244;6.774;2022-09-09T07:50:05;4.63;;;1.67;;
12356;SDS011;6243;51.244;6.774;2022-09-09T07:52:33;4.63;;;1.60;;
12356;SDS011;6243;51.244;6.774;2022-09-09T07:55:00;3.20;;;1.40;;
12356;SDS011;6243;51.244;6.774;2022-09-09T07:57:26;6.20;;;2.20;;
12356;SDS011;6243;51.244;6.774;2022-09-09T07:59:52;4.43;;;1.73;;
12356;SDS011;6243;51.244;6.774;2022-09-09T08:02:17;5.47;;;1.70;;
12356;SDS011;6243;51.244;6.774;2022-09-09T08:04:43;3.70;;;1.40;;
12356;SDS011;6243;51.244;6.774;2022-09-09T08:07:09;5.30;;;1.50;;
12356;SDS011;6243;51.244;6.774;2022-09-09T08:09:35;5.13;;;1.43;;
12356;SDS011;6243;51.244;6.774;2022-09-09T08:12:02;5.47;;;1.70;;
12356;SDS011;6243;51.244;6.774;2022-09-09T08:14:28;6.03;;;1.50;;
12356;SDS011;6243;51.244;6.774;2022-09-09T08:16:54;6.23;;;1.67;;
12356;SDS011;6243;51.244;6.774;2022-09-09T08:19:19;5.53;;;1.47;;
12356;SDS011;6243;51.244;6.774;2022-09-09T08:21:45;4.33;;;1.67;;
12356;SDS011;6243;51.244;6.774;2022-09-09T08:24:11;4.07;;;1.60;;
12356;SDS011;6243;51.244;6.774;2022-09-09T08:26:38;5.73;;;1.63;;
12356;SDS011;6243;51.244;6.774;2022-09-09T08:29:06;6.63;;;1.87;;
12356;SDS011;6243;51.244;6.774;2022-09-09T08:31:34;6.10;;;1.60;;
12356;SDS011;6243;51.244;6.774;2022-09-09T08:34:01;6.37;;;1.60;;
12356;SDS011;6243;51.244;6.774;2022-09-09T08:36:28;6.40;;;1.73;;
12356;SDS011;6243;51.244;6.774;2022-09-09T08:38:55;5.03;;;1.50;;
12356;SDS011;6243;51.244;6.774;2022-09-09T08:41:27;5.43;;;1.60;;
12356;SDS011;6243;51.244;6.774;2022-09-09T08:44:01;5.90;;;1.73;;
12356;SDS011;6243;51.244;6.774;2022-09-09T08:46:32;8.23;;;1.50;;
12356;SDS011;6243;51.244;6.774;2022-09-09T08:49:19;4.73;;;1.63;;
12356;SDS011;6243;51.244;6.774;2022-09-09T08:52:01;4.87;;;1.50;;
12356;SDS011;6243;51.244;6.774;2022-09-09T08:54:30;4.07;;;1.63;;
12356;SDS011;6243;51.244;6.774;2022-09-09T08:56:59;4.40;;;1.47;;
12356;SDS011;6243;51.244;6.774;2022-09-09T08:59:25;4.63;;;1.57;;
12356;SDS011;6243;51.244;6.774;2022-09-09T09:01:53;2.87;;;1.67;;
12356;SDS011;6243;51.244;6.774;2022-09-09T09:04:38;5.37;;;1.50;;
12356;SDS011;6243;51.244;6.774;2022-09-09T09:07:16;6.73;;;1.60;;
12356;SDS011;6243;51.244;6.774;2022-09-09T09:09:51;3.73;;;1.70;;
12356;SDS011;6243;51.244;6.774;2022-09-09T09:12:22;5.43;;;1.80;;
12356;SDS011;6243;51.244;6.774;2022-09-09T09:14:51;5.57;;;2.10;;
12356;SDS011;6243;51.244;6.774;2022-09-09T09:17:19;4.97;;;1.90;;
12356;SDS011;6243;51.244;6.774;2022-09-09T09:19:46;4.13;;;1.73;;
12356;SDS011;6243;51.244;6.774;2022-09-09T09:22:15;3.00;;;1.50;;
12356;SDS011;6243;51.244;6.774;2022-09-09T09:24:49;7.07;;;1.83;;
12356;SDS011;6243;51.244;6.774;2022-09-09T09:27:18;3.93;;;2.03;;
12356;SDS011;6243;51.244;6.774;2022-09-09T09:29:50;8.17;;;1.90;;
12356;SDS011;6243;51.244;6.774;2022-09-09T09:32:20;4.43;;;1.80;;
12356;SDS011;6243;51.244;6.774;2022-09-09T09:34:48;4.93;;;1.37;;
12356;SDS011;6243;51.244;6.774;2022-09-09T09:37:15;4.40;;;1.50;;
12356;SDS011;6243;51.244;6.774;2022-09-09T09:39:47;3.63;;;1.13;;
12356;SDS011;6243;51.244;6.774;2022-09-09T09:42:13;2.73;;;1.10;;
12356;SDS011;6243;51.244;6.774;2022-09-09T09:44:41;2.33;;;0.97;;
12356;SDS011;6243;51.244;6.774;2022-09-09T09:47:07;2.77;;;1.20;;
12356;SDS011;6243;51.244;6.774;2022-09-09T09:49:37;5.67;;;1.40;;
12356;SDS011;6243;51.244;6.774;2022-09-09T09:52:04;5.37;;;0.90;;
12356;SDS011;6243;51.244;6.774;2022-09-09T09:54:30;3.50;;;1.40;;
12356;SDS011;6243;51.244;6.774;2022-09-09T09:57:07;3.13;;;1.27;;
12356;SDS011;6243;51.244;6.774;2022-09-09T09:59:34;5.43;;;1.67;;
12356;SDS011;6243;51.244;6.774;2022-09-09T10:02:13;2.43;;;1.00;;
12356;SDS011;6243;51.244;6.774;2022-09-09T10:04:42;2.70;;;1.20;;
12356;SDS011;6243;51.244;6.774;2022-09-09T10:07:10;5.13;;;1.40;;
12356;SDS011;6243;51.244;6.774;2022-09-09T10:09:36;2.80;;;1.33;;
12356;SDS011;6243;51.244;6.774;2022-09-09T10:12:03;2.40;;;1.10;;
12356;SDS011;6243;51.244;6.774;2022-09-09T10:14:37;2.33;;;1.00;;
12356;SDS011;6243;51.244;6.774;2022-09-09T10:17:13;3.53;;;1.30;;
12356;SDS011;6243;51.244;6.774;2022-09-09T10:19:50;3.03;;;1.30;;
12356;SDS011;6243;51.244;6.774;2022-09-09T10:22:26;3.33;;;1.20;;
12356;SDS011;6243;51.244;6.774;2022-09-09T10:25:09;4.97;;;1.50;;
12356;SDS011;6243;51.244;6.774;2022-09-09T10:28:06;2.17;;;0.90;;
12356;SDS011;6243;51.244;6.774;2022-09-09T10:30:45;1.93;;;1.13;;
12356;SDS011;6243;51.244;6.774;2022-09-09T10:33:16;2.53;;;1.43;;
12356;SDS011;6243;51.244;6.774;2022-09-09T10:35:51;3.33;;;1.20;;
12356;SDS011;6243;51.244;6.774;2022-09-09T10:38:26;3.63;;;1.20;;
12356;SDS011;6243;51.244;6.774;2022-09-09T10:41:03;3.07;;;1.27;;
12356;SDS011;6243;51.244;6.774;2022-09-09T10:46:38;5.63;;;1.47;;
12356;SDS011;6243;51.244;6.774;2022-09-09T10:49:19;4.17;;;1.20;;
12356;SDS011;6243;51.244;6.774;2022-09-09T10:51:55;3.10;;;1.00;;
12356;SDS011;6243;51.244;6.774;2022-09-09T10:54:32;3.50;;;1.03;;
12356;SDS011;6243;51.244;6.774;2022-09-09T10:57:08;3.03;;;0.73;;
12356;SDS011;6243;51.244;6.774;2022-09-09T10:59:38;1.47;;;0.70;;
12356;SDS011;6243;51.244;6.774;2022-09-09T11:02:11;4.70;;;1.17;;
12356;SDS011;6243;51.244;6.774;2022-09-09T11:04:42;2.03;;;1.00;;
12356;SDS011;6243;51.244;6.774;2022-09-09T11:07:13;2.63;;;1.17;;
12356;SDS011;6243;51.244;6.774;2022-09-09T11:09:47;1.63;;;1.10;;
12356;SDS011;6243;51.244;6.774;2022-09-09T11:12:19;4.13;;;1.60;;
12356;SDS011;6243;51.244;6.774;2022-09-09T11:14:45;2.00;;;0.93;;
12356;SDS011;6243;51.244;6.774;2022-09-09T11:17:15;3.70;;;1.10;;
12356;SDS011;6243;51.244;6.774;2022-09-09T11:19:45;1.30;;;0.90;;
12356;SDS011;6243;51.244;6.774;2022-09-09T11:22:16;2.70;;;0.80;;
12356;SDS011;6243;51.244;6.774;2022-09-09T11:24:49;3.37;;;1.50;;
12356;SDS011;6243;51.244;6.774;2022-09-09T11:27:19;1.60;;;0.90;;
12356;SDS011;6243;51.244;6.774;2022-09-09T11:30:05;1.40;;;0.90;;
12356;SDS011;6243;51.244;6.774;2022-09-09T11:35:55;1.43;;;0.80;;
12356;SDS011;6243;51.244;6.774;2022-09-09T11:38:34;1.43;;;0.80;;
12356;SDS011;6243;51.244;6.774;2022-09-09T11:41:07;1.73;;;0.80;;
12356;SDS011;6243;51.244;6.774;2022-09-09T11:43:38;1.40;;;0.70;;
12356;SDS011;6243;51.244;6.774;2022-09-09T11:46:06;2.50;;;1.00;;
12356;SDS011;6243;51.244;6.774;2022-09-09T11:48:33;2.67;;;1.00;;
12356;SDS011;6243;51.244;6.774;2022-09-09T11:51:02;2.23;;;1.13;;
12356;SDS011;6243;51.244;6.774;2022-09-09T11:53:31;2.73;;;1.17;;
12356;SDS011;6243;51.244;6.774;2022-09-09T11:56:02;2.33;;;0.80;;
12356;SDS011;6243;51.244;6.774;2022-09-09T11:58:41;3.17;;;1.30;;
12356;SDS011;6243;51.244;6.774;2022-09-09T12:01:13;2.40;;;0.73;;
12356;SDS011;6243;51.244;6.774;2022-09-09T12:03:41;2.83;;;1.10;;
12356;SDS011;6243;51.244;6.774;2022-09-09T12:06:11;4.17;;;1.37;;
12356;SDS011;6243;51.244;6.774;2022-09-09T12:08:42;3.17;;;1.30;;
12356;SDS011;6243;51.244;6.774;2022-09-09T12:11:10;2.57;;;1.20;;
12356;SDS011;6243;51.244;6.774;2022-09-09T12:13:51;3.07;;;1.33;;
12356;SDS011;6243;51.244;6.774;2022-09-09T12:16:27;3.93;;;0.90;;
12356;SDS011;6243;51.244;6.774;2022-09-09T12:19:02;3.60;;;1.03;;
12356;SDS011;6243;51.244;6.774;2022-09-09T12:21:30;1.77;;;1.13;;
12356;SDS011;6243;51.244;6.774;2022-09-09T12:24:04;4.50;;;1.20;;
12356;SDS011;6243;51.244;6.774;2022-09-09T12:26:35;5.77;;;1.20;;
12356;SDS011;6243;51.244;6.774;2022-09-09T12:29:09;2.13;;;0.90;;
12356;SDS011;6243;51.244;6.774;2022-09-09T12:31:43;2.50;;;0.87;;
12356;SDS011;6243;51.244;6.774;2022-09-09T12:34:14;3.17;;;1.17;;
12356;SDS011;6243;51.244;6.774;2022-09-09T12:36:42;4.37;;;1.10;;
12356;SDS011;6243;51.244;6.774;2022-09-09T12:39:14;2.73;;;1.00;;
12356;SDS011;6243;51.244;6.774;2022-09-09T12:41:50;4.20;;;1.10;;
12356;SDS011;6243;51.244;6.774;2022-09-09T12:44:17;2.37;;;0.83;;
12356;SDS011;6243;51.244;6.774;2022-09-09T12:46:42;2.53;;;0.97;;
12356;SDS011;6243;51.244;6.774;2022-09-09T12:49:20;3.93;;;0.90;;
12356;SDS011;6243;51.244;6.774;2022-09-09T12:51:52;8.50;;;1.43;;
12356;SDS011;6243;51.244;6.774;2022-09-09T12:54:19;3.97;;;1.20;;
12356;SDS011;6243;51.244;6.774;2022-09-09T12:56:46;4.57;;;0.97;;
12356;SDS011;6243;51.244;6.774;2022-09-09T12:59:17;4.50;;;1.30;;
12356;SDS011;6243;51.244;6.774;2022-09-09T13:01:55;2.67;;;1.00;;
12356;SDS011;6243;51.244;6.774;2022-09-09T13:04:21;2.77;;;1.10;;
12356;SDS011;6243;51.244;6.774;2022-09-09T13:06:46;3.03;;;1.10;;
12356;SDS011;6243;51.244;6.774;2022-09-09T13:09:12;2.23;;;1.03;;
12356;SDS011;6243;51.244;6.774;2022-09-09T13:11:39;2.97;;;1.27;;
12356;SDS011;6243;51.244;6.774;2022-09-09T13:14:12;2.67;;;0.83;;
12356;SDS011;6243;51.244;6.774;2022-09-09T13:16:41;2.53;;;1.17;;
12356;SDS011;6243;51.244;6.774;2022-09-09T13:19:07;2.53;;;1.00;;
12356;SDS011;6243;51.244;6.774;2022-09-09T13:21:35;1.30;;;0.90;;
12356;SDS011;6243;51.244;6.774;2022-09-09T13:24:02;2.83;;;1.30;;
12356;SDS011;6243;51.244;6.774;2022-09-09T13:26:29;1.60;;;1.00;;
12356;SDS011;6243;51.244;6.774;2022-09-09T13:29:07;1.90;;;0.90;;
12356;SDS011;6243;51.244;6.774;2022-09-09T13:31:40;2.47;;;1.03;;
12356;SDS011;6243;51.244;6.774;2022-09-09T13:34:10;2.53;;;1.10;;
12356;SDS011;6243;51.244;6.774;2022-09-09T13:36:36;4.17;;;1.07;;
12356;SDS011;6243;51.244;6.774;2022-09-09T13:39:02;2.90;;;1.10;;
12356;SDS011;6243;51.244;6.774;2022-09-09T13:41:29;4.53;;;1.40;;
12356;SDS011;6243;51.244;6.774;2022-09-09T13:43:58;3.70;;;1.10;;
12356;SDS011;6243;51.244;6.774;2022-09-09T13:46:27;3.60;;;1.17;;
12356;SDS011;6243;51.244;6.774;2022-09-09T13:48:57;3.53;;;0.90;;
12356;SDS011;6243;51.244;6.774;2022-09-09T13:51:33;2.87;;;1.10;;
12356;SDS011;6243;51.244;6.774;2022-09-09T13:54:01;1.37;;;0.87;;
12356;SDS011;6243;51.244;6.774;2022-09-09T13:56:26;3.47;;;1.17;;
12356;SDS011;6243;51.244;6.774;2022-09-09T13:58:52;7.17;;;1.10;;
12356;SDS011;6243;51.244;6.774;2022-09-09T14:01:19;2.47;;;0.87;;
12356;SDS011;6243;51.244;6.774;2022-09-09T14:03:44;2.57;;;1.00;;
12356;SDS011;6243;51.244;6.774;2022-09-09T14:06:10;1.90;;;1.07;;
12356;SDS011;6243;51.244;6.774;2022-09-09T14:08:36;3.57;;;1.10;;
12356;SDS011;6243;51.244;6.774;2022-09-09T14:11:02;1.43;;;1.00;;
12356;SDS011;6243;51.244;6.774;2022-09-09T14:13:27;2.57;;;1.30;;
12356;SDS011;6243;51.244;6.774;2022-09-09T14:15:53;2.30;;;1.30;;
12356;SDS011;6243;51.244;6.774;2022-09-09T14:18:20;1.30;;;0.80;;
12356;SDS011;6243;51.244;6.774;2022-09-09T14:20:45;2.60;;;1.17;;
12356;SDS011;6243;51.244;6.774;2022-09-09T14:23:11;3.40;;;1.30;;
12356;SDS011;6243;51.244;6.774;2022-09-09T14:25:38;2.47;;;1.27;;
12356;SDS011;6243;51.244;6.774;2022-09-09T14:28:05;1.90;;;0.90;;
12356;SDS011;6243;51.244;6.774;2022-09-09T14:30:32;0.70;;;0.43;;
12356;SDS011;6243;51.244;6.774;2022-09-09T14:32:57;1.27;;;0.50;;
12356;SDS011;6243;51.244;6.774;2022-09-09T14:35:24;1.83;;;0.27;;
12356;SDS011;6243;51.244;6.774;2022-09-09T14:37:50;0.30;;;0.20;;
12356;SDS011;6243;51.244;6.774;2022-09-09T14:40:15;0.53;;;0.20;;
12356;SDS011;6243;51.244;6.774;2022-09-09T14:42:41;0.30;;;0.30;;
12356;SDS011;6243;51.244;6.774;2022-09-09T14:45:07;1.20;;;0.47;;
12356;SDS011;6243;51.244;6.774;2022-09-09T14:47:33;0.80;;;0.40;;
12356;SDS011;6243;51.244;6.774;2022-09-09T14:49:58;2.13;;;0.53;;
12356;SDS011;6243;51.244;6.774;2022-09-09T14:52:25;1.60;;;0.77;;
12356;SDS011;6243;51.244;6.774;2022-09-09T14:54:51;1.80;;;0.83;;
12356;SDS011;6243;51.244;6.774;2022-09-09T14:57:16;1.80;;;0.53;;
12356;SDS011;6243;51.244;6.774;2022-09-09T14:59:42;1.17;;;0.60;;
12356;SDS011;6243;51.244;6.774;2022-09-09T15:02:08;2.10;;;0.50;;
12356;SDS011;6243;51.244;6.774;2022-09-09T15:04:34;0.67;;;0.40;;
12356;SDS011;6243;51.244;6.774;2022-09-09T15:06:59;0.67;;;0.67;;
12356;SDS011;6243;51.244;6.774;2022-09-09T15:09:26;0.40;;;0.30;;
12356;SDS011;6243;51.244;6.774;2022-09-09T15:11:52;0.90;;;0.47;;
12356;SDS011;6243;51.244;6.774;2022-09-09T15:14:17;0.97;;;0.60;;
12356;SDS011;6243;51.244;6.774;2022-09-09T15:16:43;1.40;;;0.70;;